NCAR-RAP Real-Time Weather Data

Output produced by METARs form (06 May 2021  15:33 UTC)
found at http://weather.rap.ucar.edu/surface/
 
KLXV 061453Z AUTO 00000KT 10SM CLR 05/M07 A3049 RMK AO2 SLP238 T00501072 51007
KLXV 061353Z AUTO 19005KT 10SM CLR 01/M08 A3049 RMK AO2 SLP238 T00061078
KLXV 061253Z AUTO 00000KT 10SM CLR M02/M09 A3047 RMK AO2 SLP238 T10221089
KLXV 061153Z AUTO 06006KT 10SM CLR M03/M09 A3046 RMK AO2 SLP223 T10281089 11011 21039 53001
KLXV 061053Z AUTO 07006KT 10SM CLR M03/M08 A3045 RMK AO2 SLP225 T10331083
KLXV 060953Z AUTO 07005KT 10SM CLR M03/M08 A3045 RMK AO2 SLP225 T10331083
KLXV 060853Z AUTO VRB04KT 10SM CLR M03/M08 A3046 RMK AO2 SLP222 T10281078 50000
KLXV 060753Z AUTO 07005KT 10SM CLR M04/M08 A3046 RMK AO2 SLP238 T10391078
KLXV 060653Z AUTO 05004KT 10SM CLR M03/M08 A3047 RMK AO2 SLP241 T10281078 400941039
KLXV 060553Z AUTO 05007KT 10SM CLR M01/M08 A3046 RMK AO2 SLP232 T10111078 10089 21017 50009
KLXV 060453Z AUTO 07007KT 10SM CLR M01/M08 A3046 RMK AO2 SLP244 T10111078
KLXV 060353Z AUTO 04003KT 10SM CLR M01/M07 A3045 RMK AO2 SLP244 T10061072
KLXV 060253Z AUTO 03007KT 10SM CLR 01/M07 A3042 RMK AO2 SLP229 T00061072 53013
KLXV 060153Z AUTO 01005KT 10SM CLR 05/M08 A3040 RMK AO2 SLP210 T00501083